Cut Bank, MT

9:50 AM MDT on October 01, 2016 (GMT -0600)
Cut Bank Municipal | | Change Station

Elev 3855 ft 48.61 °N, 112.38 °W | Updated 12 minutes ago

Overcast
Overcast
49 °F
Feels Like 49 °F
N
14
Wind Variable Wind from NW

Today
High -- | Low -- °F
--% Chance of Precip.
Yesterday
High -- | Low -- °F
Precip. -- in
Pressure 29.92 in
Visibility 3.0 miles
Clouds Overcast 300 ft
Dew Point 48 °F
Humidity 97%
Rainfall 0.00 in
Snow Depth Not available.
7:29 AM 7:07 PM
New Moon, 0% visible
SPECI KCTB 011538Z AUTO 32012KT 3SM BR OVC003 09/09 A2992 RMK AO2 T00940089
Pressure 29.92 in
Visibility 3.0 miles
Clouds Overcast 300 ft
Dew Point 48 °F
Humidity 97%
Rainfall 0.00 in
Snow Depth Not available.
7:29 AM 7:07 PM
New Moon, 0% visible
SPECI KCTB 011538Z AUTO 32012KT 3SM BR OVC003 09/09 A2992 RMK AO2 T00940089

10-Day Weather Forecast

Almanac

Astronomy

Oct. 01, 2016 Rise Set
Actual Time
Civil Twilight
Nautical Twilight
Astronomical Twilight
Moon
Length of Visible Light
Length of Day
Tomorrow will be .
, % of the Moon is Illuminated

Today's Extremes

State Highs State Lows

Community

WunderPhotos

Upload Photos

1,942,957 photos uploaded!

WunderBlog® & News

Nearby

Air Quality

  Air Quality AQ Index Pollutant
Not available.

Snow Depth

Station Depth Elevation

Earthquake Activity

City Distance Mag. Time & Date
Minimum magnitude displayed is 2.5.

Coastal Water Temperatures

Place Temperature

Stations

Nearby Weather Stations

Station Location Temp. Windchill Dew Point Humidity Wind Precip. Elev Updated Type
                   

Watches & Warnings

There are currently no watches in effect.